Shear Water — WDB2424 — position and weather

sailwx.info

Track history (hours):
 
Tides and Currents Weather Stations Pressure Air Temp Water Temp Dewpoint Dewpoint Depression Visibility Wind Speed Wind Dir Waves Ship Positions

Shear Water

Owner: N.O.A.A., santa barbara, CA. More information available from US FCC via Universal Licensing System and Coast Guard Vessel Documentation Center.

Last reported at 2017-Nov-18 15:22 UTC. Time now 2017-Nov-23 03:25 UTC.
Position N 34°24' W 119°41'.

Length 20 m.

MMSI: 366875820.

Date/timePositionNaut miles runAvg speedWind from/ knotsBaromVisibWave heightAir tempDewpointWater temp
2017-Nov-18 15:22N 34°24' W 119°41'1 3.8
2017-Nov-18 15:00N 34°23' W 119°42'917.0
2017-Nov-18 14:30N 34°22' W 119°53'815.2
2017-Nov-18 14:00N 34°22' W 120°02'610.1
2017-Nov-18 13:24N 34°23' W 120°09'4 9.6
2017-Nov-18 12:59N 34°23' W 120°14'510.1
2017-Nov-18 12:30N 34°23' W 120°20'510.2
2017-Nov-18 12:00N 34°23' W 120°26'510.1
2017-Nov-18 11:30N 34°25' W 120°32'510.4
2017-Nov-18 11:00N 34°28' W 120°36'510.2
2017-Nov-18 10:30N 34°32' W 120°40'510.0
2017-Nov-18 10:00N 34°37' W 120°43'0 0.9
2017-Nov-18 09:30N 34°36' W 120°43'1 2.5
2017-Nov-18 09:00N 34°37' W 120°43'510.0
2017-Nov-18 08:30N 34°42' W 120°40'1 2.8
2017-Nov-18 08:01N 34°41' W 120°39'712.7
2017-Nov-18 07:28N 34°34' W 120°41'511.2
2017-Nov-18 07:00N 34°31' W 120°36'511.0
2017-Nov-18 06:31N 34°26' W 120°33'5 9.2
2017-Nov-18 06:01N 34°26' W 120°27'1 2.4
2017-Nov-18 05:30N 34°27' W 120°26'0 0.0
2017-Nov-18 05:01N 34°27' W 120°26'0 0.0
2017-Nov-18 04:31N 34°27' W 120°26'0 0.0
2017-Nov-18 04:01N 34°27' W 120°26'0 0.2
2017-Nov-18 03:31N 34°27' W 120°26'3 6.8
2017-Nov-18 03:00N 34°26' W 120°22'510.9
2017-Nov-18 02:30N 34°27' W 120°16'814.9
2017-Nov-18 02:00N 34°27' W 120°06'814.8
2017-Nov-18 01:29N 34°25' W 119°57'714.4
2017-Nov-18 00:59N 34°23' W 119°49'713.3
2017-Nov-18 00:29N 34°24' W 119°41'0 0.0
2017-Nov-17 00:37N 34°24' W 119°42'0 0.0
2017-Nov-17 00:30N 34°24' W 119°42'1 1.4
2017-Nov-17 00:01N 34°24' W 119°42'917.6
2017-Nov-16 23:29N 34°19' W 119°51'817.5
2017-Nov-16 23:00N 34°14' W 119°60'917.8
2017-Nov-16 22:30N 34°09' W 120°09'917.8
2017-Nov-16 22:00N 34°05' W 120°18'3 6.2
2017-Nov-16 21:30N 34°03' W 120°21'0 0.0
2017-Nov-16 21:00N 34°03' W 120°21'0 0.0
2017-Nov-16 20:30N 34°03' W 120°21'0 0.0
2017-Nov-16 20:00N 34°03' W 120°21'0 0.0
2017-Nov-16 19:30N 34°03' W 120°21'0 0.0
2017-Nov-16 19:00N 34°03' W 120°21'0 0.0
2017-Nov-16 18:29N 34°03' W 120°21'0 0.0
2017-Nov-16 17:59N 34°03' W 120°21'3 6.3
2017-Nov-16 17:29N 34°04' W 120°18'816.9
2017-Nov-16 17:00N 34°08' W 120°09'816.5
2017-Nov-16 16:30N 34°13' W 120°01'817.2
2017-Nov-16 16:00N 34°17' W 119°52'917.3
2017-Nov-16 15:30N 34°22' W 119°43'3 5.6
2017-Nov-16 14:59N 34°24' W 119°41'0 0.0
2017-Nov-15 22:22N 34°24' W 119°42'0 0.5
2017-Nov-15 22:00N 34°24' W 119°41'612.8
2017-Nov-15 21:31N 34°23' W 119°49'1 2.6
2017-Nov-15 21:01N 34°23' W 119°51'3 5.8
2017-Nov-15 20:28N 34°20' W 119°52'3 6.4
2017-Nov-15 20:01N 34°18' W 119°54'0 0.6
2017-Nov-15 19:30N 34°18' W 119°54'3 5.0
2017-Nov-15 19:00N 34°15' W 119°54'1 1.3
2017-Nov-15 18:31N 34°15' W 119°54'0 0.1
2017-Nov-15 17:59N 34°15' W 119°54'3 6.8
2017-Nov-15 17:30N 34°12' W 119°56'3 4.9
2017-Nov-15 16:57N 34°09' W 119°57'0 0.0
2017-Nov-15 16:30N 34°09' W 119°57'715.0
2017-Nov-15 16:01N 34°15' W 119°50'917.2
2017-Nov-15 15:30N 34°21' W 119°43'4 7.6
2017-Nov-15 15:00N 34°24' W 119°41'3 5.3
2017-Nov-15 14:29N 34°22' W 119°44'511.2
2017-Nov-15 14:00N 34°23' W 119°50'611.0
2017-Nov-15 13:30N 34°23' W 119°57'511.0
2017-Nov-15 13:00N 34°23' W 120°03'611.1
2017-Nov-15 12:30N 34°23' W 120°10'511.0
2017-Nov-15 12:00N 34°24' W 120°17'611.3
2017-Nov-15 11:30N 34°24' W 120°23'611.3
2017-Nov-15 11:00N 34°24' W 120°30'611.8
2017-Nov-15 10:30N 34°28' W 120°36'612.0
2017-Nov-15 10:00N 34°33' W 120°41'5 9.4
2017-Nov-15 09:30N 34°37' W 120°43'2 3.9
2017-Nov-15 08:59N 34°39' W 120°43'510.8
2017-Nov-15 08:30N 34°44' W 120°41'2 3.7
2017-Nov-15 08:00N 34°44' W 120°39'712.0
2017-Nov-15 07:23N 34°37' W 120°41'4 9.6
2017-Nov-15 06:59N 34°33' W 120°40'511.0
2017-Nov-15 06:30N 34°32' W 120°34'612.3
2017-Nov-15 06:00N 34°26' W 120°32'510.7
2017-Nov-15 05:30N 34°26' W 120°26'1 1.1
2017-Nov-15 05:00N 34°27' W 120°26'0 0.0
2017-Nov-15 04:30N 34°27' W 120°26'0 0.0
2017-Nov-15 04:00N 34°27' W 120°26'0 0.0
2017-Nov-15 03:30N 34°27' W 120°26'0 0.0
2017-Nov-15 03:00N 34°27' W 120°26'3 6.0
2017-Nov-15 02:30N 34°26' W 120°23'815.2
2017-Nov-15 02:00N 34°27' W 120°13'916.7
2017-Nov-15 01:30N 34°26' W 120°03'816.0
2017-Nov-15 00:59N 34°24' W 119°54'816.0
2017-Nov-15 00:30N 34°23' W 119°44'3 4.6
2017-Nov-14 23:55N 34°24' W 119°42'0 0.0
2017-Nov-14 23:29N 34°24' W 119°42'0 0.0
2017-Nov-14 15:06N 34°24' W 119°41'0 0.1
2017-Nov-14 14:57N 34°24' W 119°41'4 9.8
2017-Nov-14 14:30N 34°22' W 119°46'611.9
2017-Nov-14 14:01N 34°22' W 119°53'611.1
2017-Nov-14 13:30N 34°23' W 119°60'611.3
2017-Nov-14 13:00N 34°23' W 120°07'611.2
2017-Nov-14 12:30N 34°23' W 120°13'611.5
2017-Nov-14 12:00N 34°24' W 120°20'611.4
2017-Nov-14 11:30N 34°24' W 120°27'611.4
2017-Nov-14 11:01N 34°25' W 120°34'612.4
2017-Nov-14 10:31N 34°30' W 120°39'612.7
2017-Nov-14 10:01N 34°35' W 120°43'713.4
2017-Nov-14 09:31N 34°42' W 120°42'917.8
2017-Nov-14 09:00N 34°51' W 120°40'510.2
2017-Nov-14 08:30N 34°46' W 120°40'510.2
2017-Nov-14 08:00N 34°41' W 120°38'510.7
2017-Nov-14 07:30N 34°36' W 120°41'510.7
2017-Nov-14 07:00N 34°32' W 120°36'713.6
2017-Nov-14 06:30N 34°26' W 120°33'611.3
2017-Nov-14 06:00N 34°26' W 120°26'1 1.1
2017-Nov-14 05:29N 34°27' W 120°26'0 0.0
2017-Nov-14 04:59N 34°27' W 120°26'0 0.0
2017-Nov-14 04:29N 34°27' W 120°26'0 0.0
2017-Nov-14 03:59N 34°27' W 120°26'0 0.0
2017-Nov-14 03:29N 34°27' W 120°26'0 0.0
2017-Nov-14 02:59N 34°27' W 120°26'0 0.0
2017-Nov-14 02:30N 34°27' W 120°26'0 0.1
2017-Nov-14 02:00N 34°27' W 120°26'612.9
2017-Nov-14 01:30N 34°26' W 120°18'611.3
2017-Nov-14 01:00N 34°27' W 120°12'816.4
2017-Nov-14 00:30N 34°26' W 120°02'817.1
2017-Nov-14 00:00N 34°24' W 119°52'8 4.8
2017-Nov-13 22:15N 34°24' W 119°41'0 0.0
2017-Nov-13 22:00N 34°24' W 119°41'  
Track history (hours):
 
Tides and Currents Weather Stations Pressure Air Temp Water Temp Dewpoint Dewpoint Depression Visibility Wind Speed Wind Dir Waves Ship Positions

Shear Water

Owner: N.O.A.A., santa barbara, CA. More information available from US FCC via Universal Licensing System and Coast Guard Vessel Documentation Center.

Last reported at 2017-Nov-18 15:22 UTC. Time now 2017-Nov-23 03:25 UTC.
Position N 34°24' W 119°41'.

Length 20 m.

MMSI: 366875820.

Date/timePositionNaut miles runAvg speedWind from/ knotsBaromVisibWave heightAir tempDewpointWater temp
2017-Nov-18 15:22N 34°24' W 119°41'1 3.8
2017-Nov-18 15:00N 34°23' W 119°42'917.0
2017-Nov-18 14:30N 34°22' W 119°53'815.2
2017-Nov-18 14:00N 34°22' W 120°02'610.1
2017-Nov-18 13:24N 34°23' W 120°09'4 9.6
2017-Nov-18 12:59N 34°23' W 120°14'510.1
2017-Nov-18 12:30N 34°23' W 120°20'510.2
2017-Nov-18 12:00N 34°23' W 120°26'510.1
2017-Nov-18 11:30N 34°25' W 120°32'510.4
2017-Nov-18 11:00N 34°28' W 120°36'510.2
2017-Nov-18 10:30N 34°32' W 120°40'510.0
2017-Nov-18 10:00N 34°37' W 120°43'0 0.9
2017-Nov-18 09:30N 34°36' W 120°43'1 2.5
2017-Nov-18 09:00N 34°37' W 120°43'510.0
2017-Nov-18 08:30N 34°42' W 120°40'1 2.8
2017-Nov-18 08:01N 34°41' W 120°39'712.7
2017-Nov-18 07:28N 34°34' W 120°41'511.2
2017-Nov-18 07:00N 34°31' W 120°36'511.0
2017-Nov-18 06:31N 34°26' W 120°33'5 9.2
2017-Nov-18 06:01N 34°26' W 120°27'1 2.4
2017-Nov-18 05:30N 34°27' W 120°26'0 0.0
2017-Nov-18 05:01N 34°27' W 120°26'0 0.0
2017-Nov-18 04:31N 34°27' W 120°26'0 0.0
2017-Nov-18 04:01N 34°27' W 120°26'0 0.2
2017-Nov-18 03:31N 34°27' W 120°26'3 6.8
2017-Nov-18 03:00N 34°26' W 120°22'510.9
2017-Nov-18 02:30N 34°27' W 120°16'814.9
2017-Nov-18 02:00N 34°27' W 120°06'814.8
2017-Nov-18 01:29N 34°25' W 119°57'714.4
2017-Nov-18 00:59N 34°23' W 119°49'713.3
2017-Nov-18 00:29N 34°24' W 119°41'0 0.0
2017-Nov-17 00:37N 34°24' W 119°42'0 0.0
2017-Nov-17 00:30N 34°24' W 119°42'1 1.4
2017-Nov-17 00:01N 34°24' W 119°42'917.6
2017-Nov-16 23:29N 34°19' W 119°51'817.5
2017-Nov-16 23:00N 34°14' W 119°60'917.8
2017-Nov-16 22:30N 34°09' W 120°09'917.8
2017-Nov-16 22:00N 34°05' W 120°18'3 6.2
2017-Nov-16 21:30N 34°03' W 120°21'0 0.0
2017-Nov-16 21:00N 34°03' W 120°21'0 0.0
2017-Nov-16 20:30N 34°03' W 120°21'0 0.0
2017-Nov-16 20:00N 34°03' W 120°21'0 0.0
2017-Nov-16 19:30N 34°03' W 120°21'0 0.0
2017-Nov-16 19:00N 34°03' W 120°21'0 0.0
2017-Nov-16 18:29N 34°03' W 120°21'0 0.0
2017-Nov-16 17:59N 34°03' W 120°21'3 6.3
2017-Nov-16 17:29N 34°04' W 120°18'816.9
2017-Nov-16 17:00N 34°08' W 120°09'816.5
2017-Nov-16 16:30N 34°13' W 120°01'817.2
2017-Nov-16 16:00N 34°17' W 119°52'917.3
2017-Nov-16 15:30N 34°22' W 119°43'3 5.6
2017-Nov-16 14:59N 34°24' W 119°41'0 0.0
2017-Nov-15 22:22N 34°24' W 119°42'0 0.5
2017-Nov-15 22:00N 34°24' W 119°41'612.8
2017-Nov-15 21:31N 34°23' W 119°49'1 2.6
2017-Nov-15 21:01N 34°23' W 119°51'3 5.8
2017-Nov-15 20:28N 34°20' W 119°52'3 6.4
2017-Nov-15 20:01N 34°18' W 119°54'0 0.6
2017-Nov-15 19:30N 34°18' W 119°54'3 5.0
2017-Nov-15 19:00N 34°15' W 119°54'1 1.3
2017-Nov-15 18:31N 34°15' W 119°54'0 0.1
2017-Nov-15 17:59N 34°15' W 119°54'3 6.8
2017-Nov-15 17:30N 34°12' W 119°56'3 4.9
2017-Nov-15 16:57N 34°09' W 119°57'0 0.0
2017-Nov-15 16:30N 34°09' W 119°57'715.0
2017-Nov-15 16:01N 34°15' W 119°50'917.2
2017-Nov-15 15:30N 34°21' W 119°43'4 7.6
2017-Nov-15 15:00N 34°24' W 119°41'3 5.3
2017-Nov-15 14:29N 34°22' W 119°44'511.2
2017-Nov-15 14:00N 34°23' W 119°50'611.0
2017-Nov-15 13:30N 34°23' W 119°57'511.0
2017-Nov-15 13:00N 34°23' W 120°03'611.1
2017-Nov-15 12:30N 34°23' W 120°10'511.0
2017-Nov-15 12:00N 34°24' W 120°17'611.3
2017-Nov-15 11:30N 34°24' W 120°23'611.3
2017-Nov-15 11:00N 34°24' W 120°30'611.8
2017-Nov-15 10:30N 34°28' W 120°36'612.0
2017-Nov-15 10:00N 34°33' W 120°41'5 9.4
2017-Nov-15 09:30N 34°37' W 120°43'2 3.9
2017-Nov-15 08:59N 34°39' W 120°43'510.8
2017-Nov-15 08:30N 34°44' W 120°41'2 3.7
2017-Nov-15 08:00N 34°44' W 120°39'712.0
2017-Nov-15 07:23N 34°37' W 120°41'4 9.6
2017-Nov-15 06:59N 34°33' W 120°40'511.0
2017-Nov-15 06:30N 34°32' W 120°34'612.3
2017-Nov-15 06:00N 34°26' W 120°32'510.7
2017-Nov-15 05:30N 34°26' W 120°26'1 1.1
2017-Nov-15 05:00N 34°27' W 120°26'0 0.0
2017-Nov-15 04:30N 34°27' W 120°26'0 0.0
2017-Nov-15 04:00N 34°27' W 120°26'0 0.0
2017-Nov-15 03:30N 34°27' W 120°26'0 0.0
2017-Nov-15 03:00N 34°27' W 120°26'3 6.0
2017-Nov-15 02:30N 34°26' W 120°23'815.2
2017-Nov-15 02:00N 34°27' W 120°13'916.7
2017-Nov-15 01:30N 34°26' W 120°03'816.0
2017-Nov-15 00:59N 34°24' W 119°54'816.0
2017-Nov-15 00:30N 34°23' W 119°44'3 4.6
2017-Nov-14 23:55N 34°24' W 119°42'0 0.0
2017-Nov-14 23:29N 34°24' W 119°42'0 0.0
2017-Nov-14 15:06N 34°24' W 119°41'0 0.1
2017-Nov-14 14:57N 34°24' W 119°41'4 9.8
2017-Nov-14 14:30N 34°22' W 119°46'611.9
2017-Nov-14 14:01N 34°22' W 119°53'611.1
2017-Nov-14 13:30N 34°23' W 119°60'611.3
2017-Nov-14 13:00N 34°23' W 120°07'611.2
2017-Nov-14 12:30N 34°23' W 120°13'611.5
2017-Nov-14 12:00N 34°24' W 120°20'611.4
2017-Nov-14 11:30N 34°24' W 120°27'611.4
2017-Nov-14 11:01N 34°25' W 120°34'612.4
2017-Nov-14 10:31N 34°30' W 120°39'612.7
2017-Nov-14 10:01N 34°35' W 120°43'713.4
2017-Nov-14 09:31N 34°42' W 120°42'917.8
2017-Nov-14 09:00N 34°51' W 120°40'510.2
2017-Nov-14 08:30N 34°46' W 120°40'510.2
2017-Nov-14 08:00N 34°41' W 120°38'510.7
2017-Nov-14 07:30N 34°36' W 120°41'510.7
2017-Nov-14 07:00N 34°32' W 120°36'713.6
2017-Nov-14 06:30N 34°26' W 120°33'611.3
2017-Nov-14 06:00N 34°26' W 120°26'1 1.1
2017-Nov-14 05:29N 34°27' W 120°26'0 0.0
2017-Nov-14 04:59N 34°27' W 120°26'0 0.0
2017-Nov-14 04:29N 34°27' W 120°26'0 0.0
2017-Nov-14 03:59N 34°27' W 120°26'0 0.0
2017-Nov-14 03:29N 34°27' W 120°26'0 0.0
2017-Nov-14 02:59N 34°27' W 120°26'0 0.0
2017-Nov-14 02:30N 34°27' W 120°26'0 0.1
2017-Nov-14 02:00N 34°27' W 120°26'612.9
2017-Nov-14 01:30N 34°26' W 120°18'611.3
2017-Nov-14 01:00N 34°27' W 120°12'816.4
2017-Nov-14 00:30N 34°26' W 120°02'817.1
2017-Nov-14 00:00N 34°24' W 119°52'8 4.8
2017-Nov-13 22:15N 34°24' W 119°41'0 0.0
2017-Nov-13 22:00N 34°24' W 119°41'  

Dump ship's entire track history